createdAt,value
2022-12-10T00:01:26.091Z,100681.28
2022-12-10T00:03:54.168Z,100685.53
2022-12-10T00:06:24.831Z,100698.41
2022-12-10T00:08:52.509Z,100694.88
2022-12-10T00:11:22.706Z,100693.09
2022-12-10T00:13:51.989Z,100688.69
2022-12-10T00:16:21.698Z,100698.03
2022-12-10T00:18:49.667Z,100695.25
2022-12-10T00:21:19.801Z,100688.22
2022-12-10T00:23:47.092Z,100689.91
2022-12-10T00:26:17.336Z,100691.63
2022-12-10T00:28:46.898Z,100688.97
2022-12-10T00:31:20.743Z,100682.84
2022-12-10T00:33:49.931Z,100699.31
2022-12-10T00:36:20.540Z,100692.97
2022-12-10T00:38:49.386Z,100693.41
2022-12-10T00:41:17.070Z,100690.84
2022-12-10T00:43:45.522Z,100688.34
2022-12-10T00:46:15.085Z,100695.53
2022-12-10T00:48:43.077Z,100698.84
2022-12-10T00:51:20.013Z,100691.94
2022-12-10T00:53:50.642Z,100689.94
2022-12-10T00:56:20.403Z,100692.28
2022-12-10T00:58:48.601Z,100705.97
2022-12-10T01:01:19.850Z,100703.31
2022-12-10T01:03:50.499Z,100706.69
2022-12-10T01:06:31.213Z,100703.94
2022-12-10T01:09:02.338Z,100701.19
2022-12-10T01:11:38.931Z,100702.00
2022-12-10T01:14:11.294Z,100695.84
2022-12-10T01:16:38.998Z,100701.09
2022-12-10T01:19:07.616Z,100694.91
2022-12-10T01:21:35.704Z,100719.66
2022-12-10T01:24:03.511Z,100717.03
2022-12-10T01:26:32.856Z,100712.78
2022-12-10T01:29:00.695Z,100710.22
2022-12-10T01:31:32.040Z,100719.56
2022-12-10T01:33:59.690Z,100719.97
2022-12-10T01:36:30.462Z,100713.06
2022-12-10T01:38:58.323Z,100720.78
2022-12-10T01:41:47.660Z,100719.06
2022-12-10T01:44:14.638Z,100729.31
2022-12-10T01:46:47.004Z,100737.06
2022-12-10T01:49:38.801Z,100730.75
2022-12-10T01:52:12.921Z,100730.63
2022-12-10T01:54:43.144Z,100735.97
2022-12-10T01:57:17.580Z,100732.41
2022-12-10T01:59:47.300Z,100728.56
2022-12-10T02:02:29.948Z,100737.22
2022-12-10T02:05:05.906Z,100737.00
2022-12-10T02:08:00.939Z,100743.84
2022-12-10T02:10:28.458Z,100741.09
2022-12-10T02:13:23.878Z,100748.78
2022-12-10T02:15:55.265Z,100744.41
2022-12-10T02:18:44.064Z,100746.09
2022-12-10T02:21:19.355Z,100739.13
2022-12-10T02:24:12.549Z,100745.97
2022-12-10T02:27:07.659Z,100750.09
2022-12-10T02:29:36.833Z,100737.22
2022-12-10T02:32:11.987Z,100740.75
2022-12-10T02:34:58.439Z,100742.13
2022-12-10T02:37:32.442Z,100735.34
2022-12-10T02:40:07.528Z,100736.53
2022-12-10T02:42:39.586Z,100733.41
2022-12-10T02:45:09.213Z,100737.72
2022-12-10T02:47:39.773Z,100735.19
2022-12-10T02:50:11.029Z,100725.81
2022-12-10T02:52:39.460Z,100739.69
2022-12-10T02:55:06.967Z,100734.44
2022-12-10T02:57:40.517Z,100733.00
2022-12-10T03:00:19.982Z,100738.03
2022-12-10T03:03:01.157Z,100751.66
2022-12-10T03:05:49.287Z,100743.16
2022-12-10T03:08:23.594Z,100736.28
2022-12-10T03:11:17.178Z,100746.78
2022-12-10T03:13:56.934Z,100751.13
2022-12-10T03:16:25.964Z,100748.59
2022-12-10T03:18:58.609Z,100759.06
2022-12-10T03:21:28.580Z,100750.44
2022-12-10T03:23:56.679Z,100747.06
2022-12-10T03:26:25.283Z,100743.56
2022-12-10T03:28:59.373Z,100748.06
2022-12-10T03:31:27.421Z,100754.03
2022-12-10T03:33:55.773Z,100755.88
2022-12-10T03:36:23.856Z,100764.72
2022-12-10T03:38:51.802Z,100764.72
2022-12-10T03:41:18.596Z,100762.34
2022-12-10T03:43:56.919Z,100762.44
2022-12-10T03:46:26.870Z,100763.25
2022-12-10T03:48:54.603Z,100765.81
2022-12-10T03:51:22.142Z,100764.94
2022-12-10T03:53:50.609Z,100766.63
2022-12-10T03:56:19.083Z,100769.19
2022-12-10T03:58:46.879Z,100756.47
2022-12-10T04:01:16.050Z,100754.84
2022-12-10T04:03:44.206Z,100758.56
2022-12-10T04:06:19.315Z,100758.41
2022-12-10T04:08:47.215Z,100757.44
2022-12-10T04:11:15.501Z,100767.47
2022-12-10T04:14:01.239Z,100765.69
2022-12-10T04:16:29.171Z,100764.03
2022-12-10T04:19:08.650Z,100768.19
2022-12-10T04:21:56.382Z,100770.94
2022-12-10T04:24:45.405Z,100754.75
2022-12-10T04:27:21.218Z,100758.91
2022-12-10T04:29:48.068Z,100761.41
2022-12-10T04:32:15.600Z,100756.38
2022-12-10T04:34:42.664Z,100751.31
2022-12-10T04:37:12.061Z,100752.78
2022-12-10T04:39:39.627Z,100752.53
2022-12-10T04:42:08.289Z,100759.50
2022-12-10T04:44:35.508Z,100754.13
2022-12-10T04:47:02.696Z,100748.38
2022-12-10T04:49:29.379Z,100754.34
2022-12-10T04:51:56.564Z,100751.69
2022-12-10T04:54:24.470Z,100745.78
2022-12-10T04:56:51.559Z,100760.13
2022-12-10T04:59:18.727Z,100755.97
2022-12-10T05:01:46.269Z,100772.84
2022-12-10T05:04:16.172Z,100763.44
2022-12-10T05:06:43.448Z,100769.22
2022-12-10T05:09:12.607Z,100768.47
2022-12-10T05:11:40.292Z,100769.31
2022-12-10T05:14:07.865Z,100776.00
2022-12-10T05:16:34.696Z,100770.66
2022-12-10T05:19:01.880Z,100777.22
2022-12-10T05:21:49.976Z,100771.88
2022-12-10T05:24:19.439Z,100777.31
2022-12-10T05:26:47.467Z,100784.31
2022-12-10T05:29:14.695Z,100773.75
2022-12-10T05:31:41.744Z,100783.28
2022-12-10T05:34:11.682Z,100774.84
2022-12-10T05:36:38.418Z,100771.44
2022-12-10T05:39:05.591Z,100784.22
2022-12-10T05:41:36.105Z,100781.25
2022-12-10T05:44:03.730Z,100777.75
2022-12-10T05:46:32.710Z,100780.41
2022-12-10T05:49:01.719Z,100782.44
2022-12-10T05:51:31.180Z,100791.91
2022-12-10T05:54:00.756Z,100792.81
2022-12-10T05:56:28.033Z,100786.78
2022-12-10T05:58:58.748Z,100785.97
2022-12-10T06:01:29.154Z,100789.44
2022-12-10T06:03:57.354Z,100790.16
2022-12-10T06:06:29.299Z,100793.16
2022-12-10T06:08:57.605Z,100794.56
2022-12-10T06:11:25.283Z,100799.06
2022-12-10T06:13:56.249Z,100799.19
2022-12-10T06:16:25.475Z,100793.50
2022-12-10T06:18:53.723Z,100797.94
2022-12-10T06:21:21.878Z,100802.44
2022-12-10T06:23:52.321Z,100806.84
2022-12-10T06:26:28.431Z,100805.16
2022-12-10T06:28:55.450Z,100808.66
2022-12-10T06:31:23.098Z,100801.56
2022-12-10T06:33:51.404Z,100816.97
2022-12-10T06:36:18.559Z,100803.22
2022-12-10T06:38:46.082Z,100802.97
2022-12-10T06:41:15.454Z,100806.59
2022-12-10T06:43:42.562Z,100814.88
2022-12-10T06:46:15.894Z,100818.38
2022-12-10T06:48:43.878Z,100813.47
2022-12-10T06:51:13.050Z,100819.63
2022-12-10T06:53:41.422Z,100827.78
2022-12-10T06:56:12.298Z,100827.00
2022-12-10T06:58:41.556Z,100838.88
2022-12-10T07:01:14.564Z,100836.56
2022-12-10T07:03:41.722Z,100843.59
2022-12-10T07:06:10.390Z,100835.25
2022-12-10T07:08:37.705Z,100830.06
2022-12-10T07:11:07.074Z,100830.34
2022-12-10T07:13:34.133Z,100826.03
2022-12-10T07:16:01.116Z,100827.75
2022-12-10T07:18:28.394Z,100832.91
2022-12-10T07:20:55.667Z,100838.13
2022-12-10T07:23:23.369Z,100832.91
2022-12-10T07:25:50.177Z,100843.06
2022-12-10T07:28:17.485Z,100844.69
2022-12-10T07:30:44.950Z,100851.56
2022-12-10T07:33:11.913Z,100859.44
2022-12-10T07:35:43.351Z,100858.53
2022-12-10T07:38:14.160Z,100852.09
2022-12-10T07:40:41.404Z,100861.81
2022-12-10T07:43:08.325Z,100859.25
2022-12-10T07:45:35.111Z,100865.09
2022-12-10T07:48:02.636Z,100868.34
2022-12-10T07:50:29.901Z,100863.00
2022-12-10T07:52:57.514Z,100866.25
2022-12-10T07:55:24.196Z,100885.13
2022-12-10T07:57:51.244Z,100878.91
2022-12-10T08:00:18.442Z,100870.19
2022-12-10T08:02:45.275Z,100874.59
2022-12-10T08:05:12.176Z,100878.38
2022-12-10T08:07:39.072Z,100879.16
2022-12-10T08:10:06.609Z,100880.13
2022-12-10T08:12:33.600Z,100881.06
2022-12-10T08:15:00.459Z,100876.84
2022-12-10T08:17:27.995Z,100882.00
2022-12-10T08:19:55.851Z,100890.38
2022-12-10T08:22:23.535Z,100903.38
2022-12-10T08:24:50.602Z,100906.94
2022-12-10T08:27:17.376Z,100908.06
2022-12-10T08:29:44.974Z,100906.16
2022-12-10T08:32:11.685Z,100908.56
2022-12-10T08:34:38.864Z,100912.88
2022-12-10T08:37:10.637Z,100914.75
2022-12-10T08:39:39.568Z,100909.84
2022-12-10T08:42:07.084Z,100908.44
2022-12-10T08:44:34.367Z,100913.69
2022-12-10T08:47:01.249Z,100912.63
2022-12-10T08:49:28.361Z,100916.19
2022-12-10T08:51:55.496Z,100914.53
2022-12-10T08:54:23.418Z,100931.97
2022-12-10T08:56:50.233Z,100927.97
2022-12-10T08:59:17.957Z,100939.00
2022-12-10T09:01:44.997Z,100938.25
2022-12-10T09:04:13.605Z,100941.63
2022-12-10T09:06:40.734Z,100935.59
2022-12-10T09:09:08.740Z,100941.53
2022-12-10T09:11:35.990Z,100954.53
2022-12-10T09:14:03.624Z,100957.97
2022-12-10T09:16:34.023Z,100956.56
2022-12-10T09:19:01.797Z,100968.59
2022-12-10T09:21:29.158Z,100962.88
2022-12-10T09:23:57.548Z,100962.78
2022-12-10T09:26:24.757Z,100967.16
2022-12-10T09:28:52.823Z,100969.03
2022-12-10T09:31:21.176Z,100968.00
2022-12-10T09:33:50.585Z,100976.81
2022-12-10T09:36:18.261Z,100974.56
2022-12-10T09:38:46.265Z,100976.16
2022-12-10T09:41:44.528Z,100972.41
2022-12-10T09:44:39.195Z,100972.41
2022-12-10T09:47:10.308Z,100969.81
2022-12-10T09:50:14.019Z,100979.41
2022-12-10T09:52:44.376Z,100974.75
2022-12-10T09:55:28.930Z,100978.63
2022-12-10T09:57:56.170Z,100971.84
2022-12-10T10:00:32.036Z,100970.13
2022-12-10T10:03:01.599Z,100968.81
2022-12-10T10:05:41.078Z,100964.38
2022-12-10T10:08:15.653Z,100961.69
2022-12-10T10:10:43.475Z,100960.19
2022-12-10T10:13:28.801Z,100959.31
2022-12-10T10:15:55.974Z,100957.00
2022-12-10T10:18:42.545Z,100962.28
2022-12-10T10:21:24.754Z,100960.53
2022-12-10T10:23:53.102Z,100960.31
2022-12-10T10:26:20.010Z,100955.28
2022-12-10T10:28:50.045Z,100959.47
2022-12-10T10:31:21.502Z,100957.66
2022-12-10T10:33:58.080Z,100960.63
2022-12-10T10:36:28.302Z,100953.06
2022-12-10T10:38:55.904Z,100950.88
2022-12-10T10:41:26.427Z,100956.72
2022-12-10T10:44:02.870Z,100957.91
2022-12-10T10:46:29.936Z,100954.44
2022-12-10T10:49:26.857Z,100959.44
2022-12-10T10:51:58.956Z,100950.38
2022-12-10T10:54:34.070Z,100961.41
2022-12-10T10:57:28.243Z,100963.38
2022-12-10T11:00:07.498Z,100959.03
2022-12-10T11:02:42.975Z,100950.16
2022-12-10T11:05:22.668Z,100953.44
2022-12-10T11:07:49.923Z,100943.59
2022-12-10T11:10:21.427Z,100944.53
2022-12-10T11:13:05.078Z,100932.47
2022-12-10T11:15:34.846Z,100938.78
2022-12-10T11:18:03.807Z,100942.28
2022-12-10T11:20:41.952Z,100940.81
2022-12-10T11:23:12.280Z,100940.69
2022-12-10T11:25:44.931Z,100935.53
2022-12-10T11:28:17.898Z,100947.88
2022-12-10T11:30:59.742Z,100937.53
2022-12-10T11:33:45.168Z,100943.19
2022-12-10T11:36:27.902Z,100942.69
2022-12-10T11:39:11.224Z,100938.69
2022-12-10T11:42:05.612Z,100943.19
2022-12-10T11:44:48.321Z,100943.09
2022-12-10T11:47:30.364Z,100935.69
2022-12-10T11:50:29.281Z,100937.75
2022-12-10T11:53:13.834Z,100941.56
2022-12-10T11:56:32.120Z,100941.94
2022-12-10T11:59:05.024Z,100942.16
2022-12-10T12:02:05.928Z,100940.59
2022-12-10T12:04:55.039Z,100943.81
2022-12-10T12:07:37.004Z,100944.53
2022-12-10T12:10:20.423Z,100945.22
2022-12-10T12:12:56.034Z,100951.84
2022-12-10T12:15:31.394Z,100955.63
2022-12-10T12:18:24.200Z,100951.34
2022-12-10T12:20:57.115Z,100943.28
2022-12-10T12:23:53.007Z,100943.63
2022-12-10T12:26:27.062Z,100940.50
2022-12-10T12:29:11.296Z,100936.72
2022-12-10T12:31:42.244Z,100947.00
2022-12-10T12:34:17.333Z,100952.03
2022-12-10T12:36:45.557Z,100950.09
2022-12-10T12:39:39.503Z,100946.03
2022-12-10T12:42:41.694Z,100949.66
2022-12-10T12:45:20.947Z,100943.34
2022-12-10T12:48:01.379Z,100947.09
2022-12-10T12:50:44.200Z,100954.84
2022-12-10T12:53:23.575Z,100947.19
2022-12-10T12:56:04.341Z,100950.66
2022-12-10T12:59:04.045Z,100954.09
2022-12-10T13:01:39.074Z,100946.31
2022-12-10T13:04:08.174Z,100948.19
2022-12-10T13:06:39.652Z,100947.00
2022-12-10T13:09:12.248Z,100949.75
2022-12-10T13:11:41.544Z,100945.41
2022-12-10T13:14:10.814Z,100945.72
2022-12-10T13:16:46.826Z,100950.47
2022-12-10T13:19:20.046Z,100947.28
2022-12-10T13:21:53.375Z,100942.25
2022-12-10T13:24:23.230Z,100949.34
2022-12-10T13:27:15.529Z,100945.19
2022-12-10T13:29:55.379Z,100957.97
2022-12-10T13:32:44.252Z,100949.44
2022-12-10T13:35:16.986Z,100951.28
2022-12-10T13:37:49.987Z,100957.09
2022-12-10T13:40:27.433Z,100961.16
2022-12-10T13:43:54.945Z,100961.31
2022-12-10T13:46:27.896Z,100954.47
2022-12-10T13:48:59.860Z,100956.97
2022-12-10T13:51:27.588Z,100951.19
2022-12-10T13:54:19.290Z,100956.72
2022-12-10T13:57:00.898Z,100958.56
2022-12-10T13:59:36.502Z,100963.81
2022-12-10T14:02:35.610Z,100965.44
2022-12-10T14:05:27.597Z,100970.28
2022-12-10T14:07:57.492Z,100971.75
2022-12-10T14:10:31.007Z,100972.81
2022-12-10T14:13:00.190Z,100978.19
2022-12-10T14:15:28.369Z,100978.91
2022-12-10T14:18:03.068Z,100984.91
2022-12-10T14:20:33.491Z,100984.06
2022-12-10T14:23:23.750Z,100982.31
2022-12-10T14:25:52.475Z,100992.41
2022-12-10T14:28:19.867Z,100992.13
2022-12-10T14:30:49.836Z,100989.50
2022-12-10T14:33:22.527Z,100986.00
2022-12-10T14:35:50.931Z,100991.19
2022-12-10T14:38:36.277Z,100999.00
2022-12-10T14:41:04.694Z,100991.53
2022-12-10T14:43:39.917Z,100994.03
2022-12-10T14:46:16.539Z,100995.00
2022-12-10T14:48:44.547Z,101002.50
2022-12-10T14:51:16.158Z,101005.78
2022-12-10T14:53:43.726Z,100999.59
2022-12-10T14:56:28.274Z,100992.78
2022-12-10T14:59:18.428Z,100996.28
2022-12-10T15:01:51.370Z,100990.56
2022-12-10T15:04:26.591Z,101000.22
2022-12-10T15:06:59.842Z,101000.22
2022-12-10T15:09:28.271Z,100995.97
2022-12-10T15:11:59.664Z,101010.06
2022-12-10T15:14:29.421Z,100998.09
2022-12-10T15:17:02.776Z,100999.47
2022-12-10T15:19:30.570Z,100993.25
2022-12-10T15:22:19.985Z,101005.69
2022-12-10T15:24:47.891Z,101009.28
2022-12-10T15:27:21.198Z,101008.38
2022-12-10T15:29:48.523Z,101009.06
2022-12-10T15:32:29.574Z,101008.16
2022-12-10T15:35:02.278Z,101017.50
2022-12-10T15:37:35.722Z,101006.47
2022-12-10T15:40:06.822Z,100998.50
2022-12-10T15:42:44.747Z,101007.13
2022-12-10T15:45:20.995Z,101009.56
2022-12-10T15:47:47.809Z,101012.06
2022-12-10T15:50:15.125Z,101022.72
2022-12-10T15:52:43.081Z,101026.06
2022-12-10T15:55:12.658Z,101027.16
2022-12-10T15:57:50.305Z,101018.78
2022-12-10T16:00:25.138Z,101032.50
2022-12-10T16:02:58.488Z,101025.84
2022-12-10T16:05:31.184Z,101024.78
2022-12-10T16:08:08.471Z,101024.88
2022-12-10T16:10:35.937Z,101020.72
2022-12-10T16:13:06.339Z,101028.44
2022-12-10T16:15:42.336Z,101028.16
2022-12-10T16:18:11.924Z,101024.19
2022-12-10T16:20:38.979Z,101022.34
2022-12-10T16:23:09.176Z,101028.47
2022-12-10T16:25:38.981Z,101027.47
2022-12-10T16:28:07.288Z,101023.19
2022-12-10T16:30:45.562Z,101032.78
2022-12-10T16:33:15.652Z,101021.47
2022-12-10T16:35:43.319Z,101026.66
2022-12-10T16:38:11.183Z,101019.72
2022-12-10T16:40:39.780Z,101025.75
2022-12-10T16:43:10.515Z,101017.28
2022-12-10T16:45:39.350Z,101033.97
2022-12-10T16:48:07.131Z,101021.13
2022-12-10T16:50:34.755Z,101030.66
2022-12-10T16:53:12.459Z,101021.13
2022-12-10T16:55:39.602Z,101022.91
2022-12-10T16:58:10.615Z,101021.34
2022-12-10T17:00:37.687Z,101027.69
2022-12-10T17:03:07.859Z,101031.75
2022-12-10T17:05:40.657Z,101032.63
2022-12-10T17:08:08.178Z,101033.31
2022-12-10T17:10:54.568Z,101039.31
2022-12-10T17:13:23.646Z,101044.44
2022-12-10T17:15:50.876Z,101042.69
2022-12-10T17:18:18.914Z,101047.13
2022-12-10T17:20:47.089Z,101047.00
2022-12-10T17:23:15.173Z,101043.59
2022-12-10T17:25:43.278Z,101039.63
2022-12-10T17:28:18.425Z,101041.38
2022-12-10T17:30:46.518Z,101046.63
2022-12-10T17:33:18.405Z,101050.00
2022-12-10T17:35:47.519Z,101050.91
2022-12-10T17:38:17.417Z,101050.56
2022-12-10T17:40:45.046Z,101036.13
2022-12-10T17:43:12.822Z,101034.47
2022-12-10T17:45:41.978Z,101042.69
2022-12-10T17:48:13.547Z,101046.06
2022-12-10T17:50:42.100Z,101046.75
2022-12-10T17:53:10.568Z,101059.09
2022-12-10T17:55:40.633Z,101049.69
2022-12-10T17:58:12.552Z,101046.41
2022-12-10T18:00:40.107Z,101052.47
2022-12-10T18:03:07.130Z,101050.91
2022-12-10T18:05:34.248Z,101050.09
2022-12-10T18:08:01.522Z,101058.81
2022-12-10T18:10:32.822Z,101062.16
2022-12-10T18:13:00.903Z,101059.69
2022-12-10T18:15:29.969Z,101069.78
2022-12-10T18:17:58.360Z,101065.41
2022-12-10T18:20:32.626Z,101068.06
2022-12-10T18:23:01.188Z,101069.59
2022-12-10T18:25:28.997Z,101061.06
2022-12-10T18:28:00.893Z,101067.19
2022-12-10T18:30:29.226Z,101071.53
2022-12-10T18:32:56.556Z,101069.69
2022-12-10T18:35:24.531Z,101075.31
2022-12-10T18:37:51.660Z,101075.19
2022-12-10T18:40:21.954Z,101067.50
2022-12-10T18:42:51.579Z,101063.16
2022-12-10T18:45:19.080Z,101064.59
2022-12-10T18:47:47.363Z,101064.59
2022-12-10T18:50:21.818Z,101064.69
2022-12-10T18:52:48.677Z,101070.84
2022-12-10T18:55:15.817Z,101067.69
2022-12-10T18:57:45.879Z,101070.34
2022-12-10T19:00:17.666Z,101065.22
2022-12-10T19:02:45.889Z,101070.56
2022-12-10T19:05:12.804Z,101068.59
2022-12-10T19:07:40.313Z,101072.13
2022-12-10T19:10:15.205Z,101072.22
2022-12-10T19:12:41.957Z,101081.41
2022-12-10T19:15:10.437Z,101076.38
2022-12-10T19:17:37.675Z,101077.34
2022-12-10T19:20:07.263Z,101075.81
2022-12-10T19:22:34.595Z,101077.56
2022-12-10T19:25:01.781Z,101079.28
2022-12-10T19:27:28.785Z,101079.09
2022-12-10T19:29:56.985Z,101080.84
2022-12-10T19:32:23.761Z,101075.69
2022-12-10T19:34:50.706Z,101064.59
2022-12-10T19:37:17.417Z,101072.22
2022-12-10T19:39:44.143Z,101070.66
2022-12-10T19:42:11.195Z,101067.28
2022-12-10T19:44:38.701Z,101067.06
2022-12-10T19:47:16.677Z,101072.00
2022-12-10T19:49:43.739Z,101068.59
2022-12-10T19:52:10.653Z,101069.59
2022-12-10T19:54:38.218Z,101073.97
2022-12-10T19:57:04.955Z,101072.78
2022-12-10T19:59:31.823Z,101069.16
2022-12-10T20:01:58.975Z,101071.59
2022-12-10T20:04:25.993Z,101065.66
2022-12-10T20:06:53.425Z,101060.41
2022-12-10T20:09:27.263Z,101060.56
2022-12-10T20:11:55.846Z,101059.75
2022-12-10T20:14:24.574Z,101063.09
2022-12-10T20:16:52.551Z,101064.88
2022-12-10T20:19:22.728Z,101061.50
2022-12-10T20:21:50.554Z,101062.50
2022-12-10T20:24:17.758Z,101065.88
2022-12-10T20:26:47.543Z,101069.38
2022-12-10T20:29:19.189Z,101081.72
2022-12-10T20:31:51.086Z,101080.41
2022-12-10T20:34:18.753Z,101073.19
2022-12-10T20:36:45.961Z,101074.41
2022-12-10T20:39:28.405Z,101071.88
2022-12-10T20:41:56.817Z,101076.31
2022-12-10T20:44:24.936Z,101083.59
2022-12-10T20:46:53.318Z,101075.28
2022-12-10T20:49:21.862Z,101086.06
2022-12-10T20:51:50.421Z,101080.31
2022-12-10T20:54:17.312Z,101086.59
2022-12-10T20:56:44.484Z,101083.34
2022-12-10T20:59:15.171Z,101081.56
2022-12-10T21:01:42.112Z,101077.66
2022-12-10T21:04:09.249Z,101077.50
2022-12-10T21:06:36.823Z,101074.31
2022-12-10T21:09:04.184Z,101072.84
2022-12-10T21:11:31.063Z,101066.72
2022-12-10T21:13:59.449Z,101070.94
2022-12-10T21:16:27.002Z,101065.88
2022-12-10T21:18:54.691Z,101067.56
2022-12-10T21:21:24.122Z,101069.91
2022-12-10T21:23:51.309Z,101066.41
2022-12-10T21:26:18.696Z,101069.09
2022-12-10T21:28:46.053Z,101065.72
2022-12-10T21:31:17.109Z,101074.19
2022-12-10T21:33:44.814Z,101071.66
2022-12-10T21:36:13.782Z,101071.63
2022-12-10T21:38:40.913Z,101074.00
2022-12-10T21:41:29.726Z,101072.00
2022-12-10T21:43:56.898Z,101072.97
2022-12-10T21:46:24.004Z,101080.34
2022-12-10T21:48:51.376Z,101077.16
2022-12-10T21:51:18.285Z,101074.56
2022-12-10T21:53:45.522Z,101072.84
2022-12-10T21:56:13.480Z,101088.00
2022-12-10T21:58:40.594Z,101070.75
2022-12-10T22:01:10.340Z,101075.28
2022-12-10T22:03:37.317Z,101074.00
2022-12-10T22:06:05.177Z,101068.19
2022-12-10T22:08:31.908Z,101070.91
2022-12-10T22:10:59.498Z,101073.00
2022-12-10T22:13:26.511Z,101071.41
2022-12-10T22:15:53.448Z,101075.75
2022-12-10T22:18:20.513Z,101065.59
2022-12-10T22:20:56.305Z,101075.81
2022-12-10T22:23:23.247Z,101070.50
2022-12-10T22:25:55.734Z,101082.78
2022-12-10T22:28:27.816Z,101084.63
2022-12-10T22:30:56.047Z,101077.09
2022-12-10T22:33:23.381Z,101072.78
2022-12-10T22:35:50.469Z,101074.47
2022-12-10T22:38:17.747Z,101079.13
2022-12-10T22:40:45.079Z,101082.28
2022-12-10T22:43:41.555Z,101078.31
2022-12-10T22:46:00.280Z,101080.44
2022-12-10T22:48:27.525Z,101079.00
2022-12-10T22:51:06.460Z,101081.44
2022-12-10T22:53:35.404Z,101082.88
2022-12-10T22:56:05.622Z,101082.78
2022-12-10T22:58:33.482Z,101086.13
2022-12-10T23:01:00.343Z,101087.91
2022-12-10T23:03:29.022Z,101086.38
2022-12-10T23:05:56.081Z,101085.59
2022-12-10T23:08:23.782Z,101084.16
2022-12-10T23:10:51.238Z,101082.50
2022-12-10T23:13:21.430Z,101090.19
2022-12-10T23:15:52.767Z,101078.31
2022-12-10T23:18:21.167Z,101087.59
2022-12-10T23:20:50.146Z,101083.34
2022-12-10T23:23:21.421Z,101087.53
2022-12-10T23:25:48.982Z,101084.16
2022-12-10T23:28:16.260Z,101079.81
2022-12-10T23:30:44.083Z,101075.63
2022-12-10T23:33:13.277Z,101080.06
2022-12-10T23:35:41.676Z,101066.50
2022-12-10T23:38:09.308Z,101069.75
2022-12-10T23:40:40.440Z,101077.13
2022-12-10T23:43:07.332Z,101070.28
2022-12-10T23:45:34.837Z,101077.00
2022-12-10T23:48:03.060Z,101072.50
2022-12-10T23:50:32.859Z,101062.34
2022-12-10T23:53:01.912Z,101069.94
2022-12-10T23:55:29.014Z,101060.59
2022-12-10T23:57:56.628Z,101064.41
